createdAt,value
2022-10-26T00:00:39.063Z,7.30
2022-10-26T00:05:41.917Z,7.20
2022-10-26T00:10:44.296Z,7.10
2022-10-26T00:15:46.671Z,7.10
2022-10-26T00:20:49.778Z,7.10
2022-10-26T00:25:56.117Z,7.10
2022-10-26T00:31:08.373Z,7.00
2022-10-26T00:46:26.672Z,6.80
2022-10-26T00:51:37.593Z,6.60
2022-10-26T00:56:40.839Z,6.60
2022-10-26T01:01:46.840Z,6.80
2022-10-26T01:06:50.269Z,7.00
2022-10-26T01:11:52.711Z,7.20
2022-10-26T01:17:13.745Z,7.40
2022-10-26T01:22:33.078Z,7.30
2022-10-26T01:27:51.566Z,7.10
2022-10-26T01:33:09.365Z,7.10
2022-10-26T01:38:23.269Z,7.10
2022-10-26T01:43:30.472Z,6.90
2022-10-26T01:48:34.499Z,7.00
2022-10-26T01:53:42.071Z,7.10
2022-10-26T01:59:08.700Z,7.20
2022-10-26T02:04:35.732Z,7.40
2022-10-26T02:09:58.989Z,7.50
2022-10-26T02:15:09.046Z,7.50
2022-10-26T02:20:18.547Z,7.70
2022-10-26T02:25:25.866Z,7.80
2022-10-26T02:30:29.010Z,7.90
2022-10-26T02:35:35.656Z,8.00
2022-10-26T02:40:39.145Z,8.10
2022-10-26T02:45:49.545Z,8.10
2022-10-26T02:51:20.613Z,8.00
2022-10-26T02:56:39.555Z,8.10
2022-10-26T03:01:42.851Z,8.10
2022-10-26T03:06:55.098Z,8.10
2022-10-26T03:11:57.475Z,8.10
2022-10-26T03:16:59.914Z,8.10
2022-10-26T03:22:02.353Z,8.10
2022-10-26T03:27:04.695Z,8.10
2022-10-26T03:32:07.804Z,8.10
2022-10-26T03:37:10.319Z,8.10
2022-10-26T03:42:12.732Z,8.10
2022-10-26T03:47:15.337Z,8.10
2022-10-26T03:52:17.713Z,8.10
2022-10-26T03:57:20.183Z,8.00
2022-10-26T04:02:22.687Z,8.00
2022-10-26T04:07:25.116Z,8.00
2022-10-26T04:12:27.570Z,7.90
2022-10-26T04:17:30.016Z,7.90
2022-10-26T04:22:32.418Z,8.00
2022-10-26T04:27:35.594Z,8.00
2022-10-26T04:32:38.291Z,7.90
2022-10-26T04:37:40.640Z,8.00
2022-10-26T04:42:44.907Z,7.90
2022-10-26T04:47:47.497Z,8.00
2022-10-26T04:52:51.856Z,8.00
2022-10-26T04:57:57.141Z,8.00
2022-10-26T05:03:04.025Z,7.90
2022-10-26T05:08:06.752Z,7.80
2022-10-26T05:13:10.741Z,7.70
2022-10-26T05:18:13.194Z,7.60
2022-10-26T05:23:18.702Z,7.40
2022-10-26T05:28:21.377Z,7.50
2022-10-26T05:33:23.776Z,7.30
2022-10-26T05:43:33.664Z,7.30
2022-10-26T05:48:36.095Z,7.30
2022-10-26T05:53:39.161Z,7.30
2022-10-26T05:58:41.757Z,7.40
2022-10-26T06:03:50.358Z,7.40
2022-10-26T06:08:53.121Z,7.40
2022-10-26T06:14:00.374Z,7.30
2022-10-26T06:19:20.867Z,7.20
2022-10-26T06:24:46.300Z,7.30
2022-10-26T06:30:03.304Z,7.40
2022-10-26T06:35:37.055Z,7.50
2022-10-26T06:40:42.386Z,7.40
2022-10-26T06:45:47.743Z,8.20
2022-10-26T06:50:53.855Z,7.60
2022-10-26T06:55:59.301Z,7.60
2022-10-26T07:01:02.487Z,7.60
2022-10-26T07:06:06.074Z,7.90
2022-10-26T07:11:09.442Z,7.80
2022-10-26T07:16:11.845Z,8.00
2022-10-26T07:21:14.253Z,8.10
2022-10-26T07:26:16.710Z,8.10
2022-10-26T07:31:19.302Z,8.30
2022-10-26T07:36:22.217Z,8.30
2022-10-26T07:41:24.654Z,8.30
2022-10-26T07:46:27.605Z,8.40
2022-10-26T07:51:30.037Z,8.60
2022-10-26T07:56:32.673Z,9.90
2022-10-26T08:01:35.807Z,9.00
2022-10-26T08:06:39.816Z,9.00
2022-10-26T08:11:42.302Z,9.00
2022-10-26T08:16:44.759Z,9.20
2022-10-26T08:21:47.278Z,9.30
2022-10-26T08:26:49.622Z,9.40
2022-10-26T08:31:51.963Z,9.40
2022-10-26T08:36:54.452Z,9.40
2022-10-26T08:42:11.082Z,9.70
2022-10-26T08:47:22.528Z,9.70
2022-10-26T08:52:33.201Z,10.00
2022-10-26T08:57:41.465Z,10.00
2022-10-26T09:02:44.094Z,10.20
2022-10-26T09:07:51.488Z,10.10
2022-10-26T09:13:15.090Z,10.20
2022-10-26T09:18:20.330Z,10.50
2022-10-26T09:23:38.450Z,10.20
2022-10-26T09:28:44.788Z,10.70
2022-10-26T09:33:47.589Z,10.40
2022-10-26T09:39:20.571Z,10.70
2022-10-26T09:44:26.099Z,11.00
2022-10-26T09:49:52.678Z,11.00
2022-10-26T09:54:55.076Z,11.20
2022-10-26T09:59:57.998Z,11.30
2022-10-26T10:05:00.501Z,11.50
2022-10-26T10:10:14.748Z,11.70
2022-10-26T10:15:23.488Z,11.60
2022-10-26T10:20:32.964Z,11.90
2022-10-26T10:25:42.787Z,11.70
2022-10-26T10:30:54.539Z,11.50
2022-10-26T10:35:58.561Z,11.80
2022-10-26T10:41:03.875Z,12.10
2022-10-26T10:46:06.315Z,12.00
2022-10-26T10:51:18.153Z,11.90
2022-10-26T10:56:34.372Z,11.70
2022-10-26T11:01:49.850Z,12.10
2022-10-26T11:06:54.759Z,12.50
2022-10-26T11:12:15.862Z,12.60
2022-10-26T11:17:25.858Z,13.00
2022-10-26T11:22:55.877Z,12.80
2022-10-26T11:28:02.987Z,12.80
2022-10-26T11:33:25.362Z,12.90
2022-10-26T11:38:55.961Z,12.70
2022-10-26T11:44:21.907Z,12.80
2022-10-26T11:50:03.717Z,12.70
2022-10-26T11:55:08.819Z,13.00
2022-10-26T12:00:20.829Z,13.60
2022-10-26T12:05:33.851Z,13.70
2022-10-26T12:10:40.219Z,13.70
2022-10-26T12:16:02.954Z,14.30
2022-10-26T12:21:08.965Z,14.00
2022-10-26T12:26:39.027Z,14.00
2022-10-26T12:31:43.582Z,14.40
2022-10-26T12:36:55.161Z,14.30
2022-10-26T12:42:06.640Z,14.30
2022-10-26T12:47:28.129Z,14.30
2022-10-26T12:52:45.410Z,14.40
2022-10-26T12:58:06.634Z,14.40
2022-10-26T13:03:40.485Z,14.40
2022-10-26T13:08:56.303Z,14.70
2022-10-26T13:14:06.432Z,14.60
2022-10-26T13:19:34.476Z,14.80
2022-10-26T13:30:05.445Z,15.00
2022-10-26T13:35:14.010Z,15.00
2022-10-26T13:40:27.815Z,15.30
2022-10-26T13:45:36.237Z,15.30
2022-10-26T13:50:55.635Z,15.20
2022-10-26T13:56:23.381Z,15.00
2022-10-26T14:01:27.054Z,14.90
2022-10-26T14:06:34.260Z,14.80
2022-10-26T14:11:45.969Z,14.50
2022-10-26T14:16:51.088Z,14.40
2022-10-26T14:21:54.398Z,14.40
2022-10-26T14:26:58.317Z,14.40
2022-10-26T14:32:00.740Z,14.40
2022-10-26T14:37:05.079Z,14.40
2022-10-26T14:42:23.192Z,14.40
2022-10-26T14:47:32.072Z,14.30
2022-10-26T14:52:36.885Z,14.20
2022-10-26T14:57:42.043Z,14.20
2022-10-26T15:02:55.929Z,13.90
2022-10-26T15:07:58.672Z,13.60
2022-10-26T15:13:19.221Z,13.50
2022-10-26T15:18:29.049Z,13.10
2022-10-26T15:23:31.926Z,12.70
2022-10-26T15:28:38.659Z,12.40
2022-10-26T15:33:42.820Z,12.10
2022-10-26T15:38:46.512Z,11.90
2022-10-26T15:43:51.057Z,11.90
2022-10-26T15:48:59.619Z,11.30
2022-10-26T15:54:04.362Z,11.20
2022-10-26T15:59:18.693Z,11.10
2022-10-26T16:04:21.292Z,10.80
2022-10-26T16:09:23.746Z,10.60
2022-10-26T16:14:29.999Z,11.60
2022-10-26T16:19:35.617Z,10.50
2022-10-26T16:24:38.169Z,10.30
2022-10-26T16:29:40.685Z,10.10
2022-10-26T16:34:43.149Z,10.00
2022-10-26T16:39:45.619Z,10.00
2022-10-26T16:44:48.080Z,9.80
2022-10-26T16:49:50.422Z,9.60
2022-10-26T16:54:54.988Z,9.50
2022-10-26T16:59:57.907Z,9.60
2022-10-26T17:05:04.183Z,9.60
2022-10-26T17:10:09.765Z,9.30
2022-10-26T17:15:15.901Z,9.00
2022-10-26T17:20:27.256Z,8.90
2022-10-26T17:25:30.226Z,8.90
2022-10-26T17:30:34.945Z,8.70
2022-10-26T17:35:38.785Z,8.70
2022-10-26T17:40:41.497Z,8.60
2022-10-26T17:45:44.459Z,8.40
2022-10-26T17:50:47.435Z,8.30
2022-10-26T17:55:50.355Z,8.20
2022-10-26T18:00:53.356Z,8.30
2022-10-26T18:05:56.150Z,8.20
2022-10-26T18:10:59.260Z,8.10
2022-10-26T18:16:07.423Z,8.10
2022-10-26T18:21:11.935Z,8.00
2022-10-26T18:26:17.774Z,8.00
2022-10-26T18:31:22.624Z,8.00
2022-10-26T18:36:26.256Z,7.80
2022-10-26T18:41:29.506Z,8.00
2022-10-26T18:46:39.688Z,7.80
2022-10-26T18:56:45.888Z,7.60
2022-10-26T19:01:49.769Z,7.70
2022-10-26T19:06:52.440Z,7.60
2022-10-26T19:11:55.408Z,7.60
2022-10-26T19:16:58.738Z,7.60
2022-10-26T19:22:01.218Z,7.60
2022-10-26T19:27:03.872Z,7.50
2022-10-26T19:32:06.489Z,7.40
2022-10-26T19:37:09.631Z,7.50
2022-10-26T19:42:12.170Z,7.40
2022-10-26T19:47:14.778Z,7.50
2022-10-26T19:57:24.646Z,7.40
2022-10-26T20:02:27.224Z,7.20
2022-10-26T20:07:29.597Z,7.30
2022-10-26T20:12:32.048Z,7.10
2022-10-26T20:17:35.670Z,7.20
2022-10-26T20:22:38.105Z,7.20
2022-10-26T20:27:42.156Z,7.00
2022-10-26T20:32:44.506Z,7.00
2022-10-26T20:37:48.287Z,7.00
2022-10-26T20:42:52.571Z,6.90
2022-10-26T20:47:56.210Z,6.90
2022-10-26T20:53:33.002Z,7.00
2022-10-26T20:58:43.897Z,7.10
2022-10-26T21:03:46.329Z,6.80
2022-10-26T21:08:50.119Z,6.90
2022-10-26T21:13:54.266Z,7.00
2022-10-26T21:18:56.928Z,6.90
2022-10-26T21:23:59.258Z,6.80
2022-10-26T21:29:01.679Z,6.80
2022-10-26T21:34:04.780Z,6.60
2022-10-26T21:39:07.181Z,6.60
2022-10-26T21:44:23.170Z,6.50
2022-10-26T21:49:32.588Z,6.40
2022-10-26T21:54:35.219Z,6.40
2022-10-26T21:59:37.703Z,6.50
2022-10-26T22:04:40.072Z,6.50
2022-10-26T22:10:00.361Z,6.30
2022-10-26T22:15:05.485Z,6.50
2022-10-26T22:20:10.427Z,6.30
2022-10-26T22:25:28.603Z,6.20
2022-10-26T22:30:36.415Z,6.30
2022-10-26T22:35:38.892Z,6.30
2022-10-26T22:40:41.362Z,6.40
2022-10-26T22:45:43.777Z,6.80
2022-10-26T22:50:46.209Z,6.80
2022-10-26T22:55:49.177Z,6.80
2022-10-26T23:00:51.526Z,6.80
2022-10-26T23:05:54.003Z,6.80
2022-10-26T23:11:01.124Z,6.90
2022-10-26T23:16:18.187Z,7.00
2022-10-26T23:21:22.931Z,7.10
2022-10-26T23:26:25.922Z,7.30
2022-10-26T23:31:28.458Z,7.20
2022-10-26T23:36:30.989Z,7.00
2022-10-26T23:41:33.575Z,6.90
2022-10-26T23:46:36.032Z,6.80
2022-10-26T23:51:38.479Z,6.90
2022-10-26T23:56:40.914Z,6.70
